sensor_id;sensor_type;location;lat;lon;timestamp;pressure;altitude;pressure_sealevel;temperature;humidity
15932;BME280;8065;49.520;11.284;2023-03-26T00:00:07;96850.75;;;11.22;76.39
15932;BME280;8065;49.520;11.284;2023-03-26T00:02:40;96840.88;;;11.22;75.82
15932;BME280;8065;49.520;11.284;2023-03-26T00:05:08;96847.66;;;11.20;76.39
15932;BME280;8065;49.520;11.284;2023-03-26T00:07:34;96851.88;;;11.21;76.40
15932;BME280;8065;49.520;11.284;2023-03-26T00:10:01;96854.41;;;11.17;76.62
15932;BME280;8065;49.520;11.284;2023-03-26T00:12:27;96858.41;;;11.23;76.10
15932;BME280;8065;49.520;11.284;2023-03-26T00:14:54;96859.84;;;11.21;76.17
15932;BME280;8065;49.520;11.284;2023-03-26T00:17:21;96866.09;;;11.28;76.24
15932;BME280;8065;49.520;11.284;2023-03-26T00:19:49;96854.34;;;11.29;75.85
15932;BME280;8065;49.520;11.284;2023-03-26T00:22:15;96860.78;;;11.28;76.20
15932;BME280;8065;49.520;11.284;2023-03-26T00:24:41;96866.38;;;11.23;76.60
15932;BME280;8065;49.520;11.284;2023-03-26T00:27:10;96869.03;;;11.23;75.66
15932;BME280;8065;49.520;11.284;2023-03-26T00:29:36;96872.13;;;11.25;76.21
15932;BME280;8065;49.520;11.284;2023-03-26T00:32:04;96863.72;;;11.23;75.72
15932;BME280;8065;49.520;11.284;2023-03-26T00:34:31;96862.78;;;11.31;75.78
15932;BME280;8065;49.520;11.284;2023-03-26T00:36:59;96863.09;;;11.30;75.70
15932;BME280;8065;49.520;11.284;2023-03-26T00:39:27;96853.00;;;11.35;75.12
15932;BME280;8065;49.520;11.284;2023-03-26T00:41:57;96859.16;;;11.24;75.77
15932;BME280;8065;49.520;11.284;2023-03-26T00:44:24;96865.44;;;11.31;75.38
15932;BME280;8065;49.520;11.284;2023-03-26T00:46:50;96856.44;;;11.36;75.39
15932;BME280;8065;49.520;11.284;2023-03-26T00:49:17;96857.41;;;11.43;75.22
15932;BME280;8065;49.520;11.284;2023-03-26T00:51:44;96859.63;;;11.41;75.44
15932;BME280;8065;49.520;11.284;2023-03-26T00:54:11;96859.44;;;11.34;75.73
15932;BME280;8065;49.520;11.284;2023-03-26T00:56:38;96853.34;;;11.34;75.48
15932;BME280;8065;49.520;11.284;2023-03-26T00:59:04;96854.47;;;11.33;75.38
15932;BME280;8065;49.520;11.284;2023-03-26T01:01:33;96835.75;;;11.29;75.79
15932;BME280;8065;49.520;11.284;2023-03-26T01:04:25;96855.41;;;11.25;75.50
15932;BME280;8065;49.520;11.284;2023-03-26T01:06:55;96855.66;;;11.35;75.42
15932;BME280;8065;49.520;11.284;2023-03-26T01:09:29;96854.56;;;11.36;75.34
15932;BME280;8065;49.520;11.284;2023-03-26T01:11:57;96855.00;;;11.38;75.33
15932;BME280;8065;49.520;11.284;2023-03-26T01:14:25;96864.84;;;11.38;74.99
15932;BME280;8065;49.520;11.284;2023-03-26T01:16:54;96854.56;;;11.36;75.09
15932;BME280;8065;49.520;11.284;2023-03-26T01:19:25;96844.34;;;11.38;75.11
15932;BME280;8065;49.520;11.284;2023-03-26T01:21:54;96847.44;;;11.40;74.83
15932;BME280;8065;49.520;11.284;2023-03-26T01:24:22;96842.47;;;11.39;75.00
15932;BME280;8065;49.520;11.284;2023-03-26T01:27:01;96849.00;;;11.41;74.79
15932;BME280;8065;49.520;11.284;2023-03-26T01:29:34;96841.03;;;11.41;75.03
15932;BME280;8065;49.520;11.284;2023-03-26T01:32:13;96836.81;;;11.40;75.41
15932;BME280;8065;49.520;11.284;2023-03-26T01:34:50;96842.91;;;11.41;75.17
15932;BME280;8065;49.520;11.284;2023-03-26T01:37:23;96843.69;;;11.41;75.22
15932;BME280;8065;49.520;11.284;2023-03-26T01:39:55;96848.59;;;11.27;75.81
15932;BME280;8065;49.520;11.284;2023-03-26T01:42:29;96831.81;;;11.39;75.36
15932;BME280;8065;49.520;11.284;2023-03-26T01:45:02;96837.28;;;11.30;75.36
15932;BME280;8065;49.520;11.284;2023-03-26T01:47:33;96834.38;;;11.35;75.40
15932;BME280;8065;49.520;11.284;2023-03-26T01:50:01;96839.72;;;11.35;75.73
15932;BME280;8065;49.520;11.284;2023-03-26T01:52:27;96835.50;;;11.34;75.78
15932;BME280;8065;49.520;11.284;2023-03-26T01:54:55;96834.97;;;11.29;75.67
15932;BME280;8065;49.520;11.284;2023-03-26T01:57:32;96841.25;;;11.36;75.28
15932;BME280;8065;49.520;11.284;2023-03-26T02:00:17;96832.75;;;11.31;75.71
15932;BME280;8065;49.520;11.284;2023-03-26T02:02:55;96828.19;;;11.31;76.06
15932;BME280;8065;49.520;11.284;2023-03-26T02:05:28;96827.59;;;11.22;76.29
15932;BME280;8065;49.520;11.284;2023-03-26T02:07:59;96825.03;;;11.26;76.26
15932;BME280;8065;49.520;11.284;2023-03-26T02:10:32;96815.41;;;11.21;76.54
15932;BME280;8065;49.520;11.284;2023-03-26T02:13:00;96815.91;;;11.27;75.97
15932;BME280;8065;49.520;11.284;2023-03-26T02:15:27;96807.22;;;11.14;76.69
15932;BME280;8065;49.520;11.284;2023-03-26T02:17:54;96796.59;;;11.14;76.90
15932;BME280;8065;49.520;11.284;2023-03-26T02:20:20;96795.38;;;11.11;76.79
15932;BME280;8065;49.520;11.284;2023-03-26T02:22:47;96801.22;;;11.17;77.02
15932;BME280;8065;49.520;11.284;2023-03-26T02:25:16;96795.03;;;11.13;76.68
15932;BME280;8065;49.520;11.284;2023-03-26T02:27:45;96783.13;;;10.95;77.14
15932;BME280;8065;49.520;11.284;2023-03-26T02:30:13;96785.31;;;11.05;76.86
15932;BME280;8065;49.520;11.284;2023-03-26T02:32:40;96781.78;;;11.01;77.31
15932;BME280;8065;49.520;11.284;2023-03-26T02:35:08;96780.25;;;11.00;77.02
15932;BME280;8065;49.520;11.284;2023-03-26T02:37:35;96790.19;;;11.03;77.30
15932;BME280;8065;49.520;11.284;2023-03-26T02:40:03;96784.88;;;11.03;76.71
15932;BME280;8065;49.520;11.284;2023-03-26T02:42:30;96778.69;;;10.99;76.99
15932;BME280;8065;49.520;11.284;2023-03-26T02:44:58;96777.59;;;11.00;76.94
15932;BME280;8065;49.520;11.284;2023-03-26T02:47:24;96770.94;;;10.94;77.02
15932;BME280;8065;49.520;11.284;2023-03-26T02:49:51;96770.94;;;10.94;77.66
15932;BME280;8065;49.520;11.284;2023-03-26T02:52:17;96774.38;;;10.94;76.58
15932;BME280;8065;49.520;11.284;2023-03-26T02:54:43;96773.19;;;10.92;77.44
15932;BME280;8065;49.520;11.284;2023-03-26T02:57:10;96767.19;;;10.95;76.71
15932;BME280;8065;49.520;11.284;2023-03-26T02:59:36;96766.31;;;10.91;77.18
15932;BME280;8065;49.520;11.284;2023-03-26T03:02:04;96768.28;;;10.94;76.74
15932;BME280;8065;49.520;11.284;2023-03-26T03:04:31;96767.84;;;10.92;76.86
15932;BME280;8065;49.520;11.284;2023-03-26T03:06:57;96763.13;;;10.85;76.99
15932;BME280;8065;49.520;11.284;2023-03-26T03:09:24;96753.25;;;10.86;76.69
15932;BME280;8065;49.520;11.284;2023-03-26T03:11:50;96756.25;;;10.84;76.84
15932;BME280;8065;49.520;11.284;2023-03-26T03:14:17;96753.25;;;10.86;76.88
15932;BME280;8065;49.520;11.284;2023-03-26T03:16:44;96749.38;;;10.83;76.71
15932;BME280;8065;49.520;11.284;2023-03-26T03:19:12;96752.28;;;10.78;77.01
15932;BME280;8065;49.520;11.284;2023-03-26T03:21:39;96752.50;;;10.73;77.21
15932;BME280;8065;49.520;11.284;2023-03-26T03:24:06;96751.31;;;10.70;77.47
15932;BME280;8065;49.520;11.284;2023-03-26T03:26:33;96752.41;;;10.69;76.87
15932;BME280;8065;49.520;11.284;2023-03-26T03:29:00;96746.66;;;10.67;77.41
15932;BME280;8065;49.520;11.284;2023-03-26T03:31:27;96739.69;;;10.63;76.84
15932;BME280;8065;49.520;11.284;2023-03-26T03:33:53;96744.47;;;10.57;77.56
15932;BME280;8065;49.520;11.284;2023-03-26T03:36:21;96737.59;;;10.56;77.38
15932;BME280;8065;49.520;11.284;2023-03-26T03:38:48;96737.72;;;10.60;77.01
15932;BME280;8065;49.520;11.284;2023-03-26T03:41:15;96734.94;;;10.56;77.11
15932;BME280;8065;49.520;11.284;2023-03-26T03:43:43;96733.41;;;10.55;76.94
15932;BME280;8065;49.520;11.284;2023-03-26T03:46:09;96727.41;;;10.58;76.65
15932;BME280;8065;49.520;11.284;2023-03-26T03:48:36;96735.72;;;10.57;76.40
15932;BME280;8065;49.520;11.284;2023-03-26T03:51:04;96723.25;;;10.45;77.41
15932;BME280;8065;49.520;11.284;2023-03-26T03:53:32;96718.59;;;10.42;76.73
15932;BME280;8065;49.520;11.284;2023-03-26T03:56:01;96720.84;;;10.40;77.53
15932;BME280;8065;49.520;11.284;2023-03-26T03:58:28;96722.47;;;10.44;77.29
15932;BME280;8065;49.520;11.284;2023-03-26T04:00:55;96714.31;;;10.37;77.12
15932;BME280;8065;49.520;11.284;2023-03-26T04:03:25;96725.94;;;10.33;77.00
15932;BME280;8065;49.520;11.284;2023-03-26T04:05:53;96725.72;;;10.26;77.53
15932;BME280;8065;49.520;11.284;2023-03-26T04:08:20;96724.84;;;10.34;77.26
15932;BME280;8065;49.520;11.284;2023-03-26T04:10:49;96719.75;;;10.29;77.25
15932;BME280;8065;49.520;11.284;2023-03-26T04:13:16;96718.84;;;10.37;76.88
15932;BME280;8065;49.520;11.284;2023-03-26T04:15:43;96723.72;;;10.35;77.74
15932;BME280;8065;49.520;11.284;2023-03-26T04:18:09;96735.22;;;10.39;77.44
15932;BME280;8065;49.520;11.284;2023-03-26T04:20:36;96729.47;;;10.37;76.76
15932;BME280;8065;49.520;11.284;2023-03-26T04:23:06;96729.91;;;10.39;77.43
15932;BME280;8065;49.520;11.284;2023-03-26T04:25:38;96726.81;;;10.37;77.33
15932;BME280;8065;49.520;11.284;2023-03-26T04:28:07;96724.50;;;10.35;77.02
15932;BME280;8065;49.520;11.284;2023-03-26T04:30:36;96727.28;;;10.27;77.73
15932;BME280;8065;49.520;11.284;2023-03-26T04:33:09;96730.03;;;10.30;76.84
15932;BME280;8065;49.520;11.284;2023-03-26T04:35:40;96728.38;;;10.26;77.57
15932;BME280;8065;49.520;11.284;2023-03-26T04:38:10;96723.81;;;10.14;78.13
15932;BME280;8065;49.520;11.284;2023-03-26T04:40:37;96723.50;;;10.15;77.46
15932;BME280;8065;49.520;11.284;2023-03-26T04:43:03;96711.22;;;10.11;77.43
15932;BME280;8065;49.520;11.284;2023-03-26T04:45:31;96707.38;;;10.21;77.91
15932;BME280;8065;49.520;11.284;2023-03-26T04:47:58;96701.91;;;10.17;77.76
15932;BME280;8065;49.520;11.284;2023-03-26T04:50:25;96695.63;;;10.09;78.14
15932;BME280;8065;49.520;11.284;2023-03-26T04:52:52;96706.34;;;10.13;77.51
15932;BME280;8065;49.520;11.284;2023-03-26T04:55:23;96701.38;;;10.11;77.63
15932;BME280;8065;49.520;11.284;2023-03-26T04:57:53;96699.59;;;10.15;78.16
15932;BME280;8065;49.520;11.284;2023-03-26T05:00:21;96697.38;;;10.17;78.01
15932;BME280;8065;49.520;11.284;2023-03-26T05:02:49;96692.31;;;10.12;77.90
15932;BME280;8065;49.520;11.284;2023-03-26T05:05:18;96679.69;;;10.09;77.71
15932;BME280;8065;49.520;11.284;2023-03-26T05:07:45;96681.69;;;10.12;77.65
15932;BME280;8065;49.520;11.284;2023-03-26T05:10:12;96681.91;;;10.07;78.46
15932;BME280;8065;49.520;11.284;2023-03-26T05:12:40;96674.38;;;10.09;77.75
15932;BME280;8065;49.520;11.284;2023-03-26T05:15:08;96678.59;;;10.10;78.79
15932;BME280;8065;49.520;11.284;2023-03-26T05:17:35;96671.41;;;10.11;78.66
15932;BME280;8065;49.520;11.284;2023-03-26T05:20:14;96669.97;;;10.13;78.27
15932;BME280;8065;49.520;11.284;2023-03-26T05:22:42;96667.75;;;10.15;78.09
15932;BME280;8065;49.520;11.284;2023-03-26T05:25:10;96665.09;;;10.15;78.73
15932;BME280;8065;49.520;11.284;2023-03-26T05:27:37;96656.03;;;10.04;78.35
15932;BME280;8065;49.520;11.284;2023-03-26T05:30:04;96659.13;;;10.06;78.87
15932;BME280;8065;49.520;11.284;2023-03-26T05:32:31;96648.94;;;10.08;79.51
15932;BME280;8065;49.520;11.284;2023-03-26T05:34:58;96647.84;;;10.09;78.80
15932;BME280;8065;49.520;11.284;2023-03-26T05:37:27;96648.94;;;10.08;79.50
15932;BME280;8065;49.520;11.284;2023-03-26T05:39:55;96645.63;;;10.11;79.63
15932;BME280;8065;49.520;11.284;2023-03-26T05:42:22;96643.41;;;10.13;79.26
15932;BME280;8065;49.520;11.284;2023-03-26T05:44:48;96640.44;;;10.15;79.98
15932;BME280;8065;49.520;11.284;2023-03-26T05:47:15;96637.00;;;10.14;79.66
15932;BME280;8065;49.520;11.284;2023-03-26T05:49:41;96623.72;;;10.14;79.96
15932;BME280;8065;49.520;11.284;2023-03-26T05:52:08;96618.88;;;10.04;80.08
15932;BME280;8065;49.520;11.284;2023-03-26T05:54:36;96621.84;;;10.15;80.09
15932;BME280;8065;49.520;11.284;2023-03-26T05:57:02;96618.84;;;10.16;80.36
15932;BME280;8065;49.520;11.284;2023-03-26T05:59:29;96609.00;;;10.17;80.06
15932;BME280;8065;49.520;11.284;2023-03-26T06:01:55;96610.25;;;10.20;80.49
15932;BME280;8065;49.520;11.284;2023-03-26T06:04:22;96612.22;;;10.23;79.92
15932;BME280;8065;49.520;11.284;2023-03-26T06:06:48;96614.88;;;10.23;79.86
15932;BME280;8065;49.520;11.284;2023-03-26T06:09:16;96613.44;;;10.25;79.82
15932;BME280;8065;49.520;11.284;2023-03-26T06:11:45;96609.53;;;10.35;80.01
15932;BME280;8065;49.520;11.284;2023-03-26T06:14:11;96601.13;;;10.33;79.81
15932;BME280;8065;49.520;11.284;2023-03-26T06:16:38;96594.53;;;10.27;80.20
15932;BME280;8065;49.520;11.284;2023-03-26T06:19:04;96592.88;;;10.22;81.15
15932;BME280;8065;49.520;11.284;2023-03-26T06:21:31;96583.91;;;10.27;80.50
15932;BME280;8065;49.520;11.284;2023-03-26T06:23:57;96584.34;;;10.29;81.19
15932;BME280;8065;49.520;11.284;2023-03-26T06:26:24;96590.50;;;10.33;81.16
15932;BME280;8065;49.520;11.284;2023-03-26T06:28:52;96578.19;;;10.40;80.04
15932;BME280;8065;49.520;11.284;2023-03-26T06:31:18;96579.03;;;10.44;80.65
15932;BME280;8065;49.520;11.284;2023-03-26T06:33:45;96572.13;;;10.40;80.96
15932;BME280;8065;49.520;11.284;2023-03-26T06:36:12;96569.63;;;10.47;80.78
15932;BME280;8065;49.520;11.284;2023-03-26T06:38:39;96571.59;;;10.50;80.48
15932;BME280;8065;49.520;11.284;2023-03-26T06:41:06;96568.28;;;10.53;80.56
15932;BME280;8065;49.520;11.284;2023-03-26T06:43:33;96580.44;;;10.54;79.48
15932;BME280;8065;49.520;11.284;2023-03-26T06:46:02;96584.84;;;10.62;79.90
15932;BME280;8065;49.520;11.284;2023-03-26T06:48:29;96578.59;;;10.70;79.56
15932;BME280;8065;49.520;11.284;2023-03-26T06:50:56;96576.66;;;10.83;79.02
15932;BME280;8065;49.520;11.284;2023-03-26T06:53:22;96573.84;;;10.92;79.11
15932;BME280;8065;49.520;11.284;2023-03-26T06:55:49;96574.34;;;10.97;78.59
15932;BME280;8065;49.520;11.284;2023-03-26T06:58:16;96577.53;;;11.03;78.90
15932;BME280;8065;49.520;11.284;2023-03-26T07:00:42;96569.81;;;10.98;78.30
15932;BME280;8065;49.520;11.284;2023-03-26T07:03:10;96567.75;;;11.07;79.04
15932;BME280;8065;49.520;11.284;2023-03-26T07:05:37;96563.63;;;10.94;78.67
15932;BME280;8065;49.520;11.284;2023-03-26T07:08:04;96561.41;;;10.96;78.70
15932;BME280;8065;49.520;11.284;2023-03-26T07:10:30;96555.41;;;10.99;78.71
15932;BME280;8065;49.520;11.284;2023-03-26T07:12:57;96549.41;;;11.02;78.10
15932;BME280;8065;49.520;11.284;2023-03-26T07:15:23;96541.69;;;11.12;78.17
15932;BME280;8065;49.520;11.284;2023-03-26T07:17:50;96538.25;;;11.12;78.93
15932;BME280;8065;49.520;11.284;2023-03-26T07:20:18;96539.97;;;11.20;78.33
15932;BME280;8065;49.520;11.284;2023-03-26T07:22:45;96551.88;;;11.10;78.42
15932;BME280;8065;49.520;11.284;2023-03-26T07:25:12;96551.19;;;11.13;77.87
15932;BME280;8065;49.520;11.284;2023-03-26T07:27:45;96551.81;;;11.23;77.44
15932;BME280;8065;49.520;11.284;2023-03-26T07:30:23;96546.75;;;11.18;77.46
15932;BME280;8065;49.520;11.284;2023-03-26T07:32:54;96546.13;;;11.24;77.61
15932;BME280;8065;49.520;11.284;2023-03-26T07:35:28;96540.09;;;11.27;76.84
15932;BME280;8065;49.520;11.284;2023-03-26T07:38:07;96536.91;;;11.37;76.78
15932;BME280;8065;49.520;11.284;2023-03-26T07:40:47;96528.44;;;11.32;76.30
15932;BME280;8065;49.520;11.284;2023-03-26T07:43:29;96519.16;;;11.41;76.69
15932;BME280;8065;49.520;11.284;2023-03-26T07:46:00;96515.53;;;11.49;76.98
15932;BME280;8065;49.520;11.284;2023-03-26T07:48:33;96515.00;;;11.60;76.39
15932;BME280;8065;49.520;11.284;2023-03-26T07:51:07;96514.06;;;11.52;76.53
15932;BME280;8065;49.520;11.284;2023-03-26T07:53:34;96512.75;;;11.62;75.84
15932;BME280;8065;49.520;11.284;2023-03-26T07:56:06;96511.75;;;11.50;76.32
15932;BME280;8065;49.520;11.284;2023-03-26T07:58:44;96505.19;;;11.64;76.03
15932;BME280;8065;49.520;11.284;2023-03-26T08:01:17;96490.84;;;11.68;75.69
15932;BME280;8065;49.520;11.284;2023-03-26T08:04:07;96490.44;;;11.66;75.90
15932;BME280;8065;49.520;11.284;2023-03-26T08:06:46;96483.72;;;11.72;76.03
15932;BME280;8065;49.520;11.284;2023-03-26T08:09:20;96474.00;;;11.80;75.37
15932;BME280;8065;49.520;11.284;2023-03-26T08:11:52;96472.28;;;11.53;76.60
15932;BME280;8065;49.520;11.284;2023-03-26T08:14:31;96471.66;;;11.59;76.51
15932;BME280;8065;49.520;11.284;2023-03-26T08:17:05;96467.41;;;11.74;76.18
15932;BME280;8065;49.520;11.284;2023-03-26T08:19:43;96467.31;;;11.70;76.32
15932;BME280;8065;49.520;11.284;2023-03-26T08:22:17;96466.88;;;11.84;76.27
15932;BME280;8065;49.520;11.284;2023-03-26T08:25:02;96469.25;;;11.89;76.23
15932;BME280;8065;49.520;11.284;2023-03-26T08:27:36;96465.53;;;11.94;76.51
15932;BME280;8065;49.520;11.284;2023-03-26T08:30:08;96464.84;;;11.97;76.39
15932;BME280;8065;49.520;11.284;2023-03-26T08:32:36;96462.09;;;11.93;77.04
15932;BME280;8065;49.520;11.284;2023-03-26T08:35:03;96461.75;;;11.95;77.41
15932;BME280;8065;49.520;11.284;2023-03-26T08:37:31;96459.59;;;12.00;77.68
15932;BME280;8065;49.520;11.284;2023-03-26T08:39:58;96451.09;;;11.95;77.68
15932;BME280;8065;49.520;11.284;2023-03-26T08:42:43;96458.44;;;11.63;79.40
15932;BME280;8065;49.520;11.284;2023-03-26T08:45:37;96444.72;;;11.80;78.35
15932;BME280;8065;49.520;11.284;2023-03-26T08:48:36;96443.41;;;11.16;82.02
15932;BME280;8065;49.520;11.284;2023-03-26T08:54:42;96418.59;;;11.66;80.82
15932;BME280;8065;49.520;11.284;2023-03-26T08:57:25;96418.00;;;11.38;82.20
15932;BME280;8065;49.520;11.284;2023-03-26T09:00:23;96408.84;;;11.55;81.48
15932;BME280;8065;49.520;11.284;2023-03-26T09:06:21;96400.50;;;11.56;82.49
15932;BME280;8065;49.520;11.284;2023-03-26T09:24:47;96388.69;;;11.54;81.82
15932;BME280;8065;49.520;11.284;2023-03-26T09:27:34;96393.03;;;11.42;82.81
15932;BME280;8065;49.520;11.284;2023-03-26T09:30:21;96404.63;;;11.34;82.93
15932;BME280;8065;49.520;11.284;2023-03-26T09:33:27;96402.75;;;11.35;82.40
15932;BME280;8065;49.520;11.284;2023-03-26T09:36:20;96394.56;;;11.43;82.15
15932;BME280;8065;49.520;11.284;2023-03-26T09:38:52;96391.56;;;11.26;82.92
15932;BME280;8065;49.520;11.284;2023-03-26T09:41:31;96396.38;;;11.20;82.41
15932;BME280;8065;49.520;11.284;2023-03-26T09:44:26;96390.75;;;11.06;83.17
15932;BME280;8065;49.520;11.284;2023-03-26T09:47:22;96383.16;;;11.24;84.11
15932;BME280;8065;49.520;11.284;2023-03-26T09:50:08;96377.88;;;11.08;84.88
15932;BME280;8065;49.520;11.284;2023-03-26T09:52:53;96374.41;;;11.23;84.30
15932;BME280;8065;49.520;11.284;2023-03-26T09:55:34;96378.31;;;11.10;84.72
15932;BME280;8065;49.520;11.284;2023-03-26T09:58:18;96382.66;;;11.18;84.54
15932;BME280;8065;49.520;11.284;2023-03-26T10:00:50;96379.44;;;11.28;83.99
15932;BME280;8065;49.520;11.284;2023-03-26T10:03:27;96378.53;;;11.40;83.58
15932;BME280;8065;49.520;11.284;2023-03-26T10:06:00;96389.38;;;11.31;84.02
15932;BME280;8065;49.520;11.284;2023-03-26T10:08:51;96391.00;;;11.16;82.80
15932;BME280;8065;49.520;11.284;2023-03-26T10:11:30;96398.88;;;11.32;83.56
15932;BME280;8065;49.520;11.284;2023-03-26T10:14:07;96382.28;;;11.00;85.76
15932;BME280;8065;49.520;11.284;2023-03-26T10:16:48;96382.78;;;11.06;85.37
15932;BME280;8065;49.520;11.284;2023-03-26T10:19:30;96384.81;;;11.12;86.22
15932;BME280;8065;49.520;11.284;2023-03-26T10:22:07;96399.88;;;10.89;84.45
15932;BME280;8065;49.520;11.284;2023-03-26T10:24:58;96379.81;;;10.92;81.10
15932;BME280;8065;49.520;11.284;2023-03-26T10:27:36;96382.75;;;10.87;81.72
15932;BME280;8065;49.520;11.284;2023-03-26T10:30:27;96366.19;;;10.93;82.38
15932;BME280;8065;49.520;11.284;2023-03-26T10:33:09;96370.94;;;10.68;83.25
15932;BME280;8065;49.520;11.284;2023-03-26T10:35:46;96365.41;;;10.93;82.93
15932;BME280;8065;49.520;11.284;2023-03-26T10:38:23;96364.09;;;10.67;84.83
15932;BME280;8065;49.520;11.284;2023-03-26T10:40:58;96358.41;;;10.84;83.57
15932;BME280;8065;49.520;11.284;2023-03-26T10:43:48;96354.50;;;10.98;83.51
15932;BME280;8065;49.520;11.284;2023-03-26T10:46:35;96358.13;;;10.90;82.93
15932;BME280;8065;49.520;11.284;2023-03-26T10:49:35;96355.94;;;10.76;82.89
15932;BME280;8065;49.520;11.284;2023-03-26T10:52:05;96356.16;;;10.87;84.16
15932;BME280;8065;49.520;11.284;2023-03-26T10:54:40;96351.69;;;10.91;84.70
15932;BME280;8065;49.520;11.284;2023-03-26T10:57:13;96333.81;;;11.07;84.05
15932;BME280;8065;49.520;11.284;2023-03-26T10:59:43;96344.03;;;11.05;84.48
15932;BME280;8065;49.520;11.284;2023-03-26T11:02:23;96351.19;;;10.85;85.59
15932;BME280;8065;49.520;11.284;2023-03-26T11:04:59;96351.44;;;10.96;85.79
15932;BME280;8065;49.520;11.284;2023-03-26T11:07:34;96332.97;;;11.03;86.23
15932;BME280;8065;49.520;11.284;2023-03-26T11:10:09;96327.78;;;10.91;87.27
15932;BME280;8065;49.520;11.284;2023-03-26T11:12:43;96337.84;;;10.81;86.50
15932;BME280;8065;49.520;11.284;2023-03-26T11:15:19;96331.00;;;11.00;85.73
15932;BME280;8065;49.520;11.284;2023-03-26T11:17:55;96328.06;;;10.86;85.92
15932;BME280;8065;49.520;11.284;2023-03-26T11:20:32;96333.38;;;10.86;85.71
15932;BME280;8065;49.520;11.284;2023-03-26T11:23:14;96321.00;;;10.93;86.29
15932;BME280;8065;49.520;11.284;2023-03-26T11:25:55;96323.19;;;11.07;86.08
15932;BME280;8065;49.520;11.284;2023-03-26T11:28:33;96314.63;;;10.98;86.92
15932;BME280;8065;49.520;11.284;2023-03-26T11:31:12;96305.53;;;10.99;85.92
15932;BME280;8065;49.520;11.284;2023-03-26T11:33:45;96309.41;;;11.01;86.81
15932;BME280;8065;49.520;11.284;2023-03-26T11:36:16;96306.75;;;11.21;86.46
15932;BME280;8065;49.520;11.284;2023-03-26T11:38:46;96301.38;;;11.17;86.79
15932;BME280;8065;49.520;11.284;2023-03-26T11:41:15;96288.41;;;11.15;86.91
15932;BME280;8065;49.520;11.284;2023-03-26T11:43:44;96293.09;;;10.83;86.60
15932;BME280;8065;49.520;11.284;2023-03-26T11:46:16;96292.38;;;10.87;87.33
15932;BME280;8065;49.520;11.284;2023-03-26T11:48:46;96284.97;;;10.96;86.55
15932;BME280;8065;49.520;11.284;2023-03-26T11:51:18;96273.16;;;11.12;86.83
15932;BME280;8065;49.520;11.284;2023-03-26T11:53:48;96274.63;;;10.91;87.96
15932;BME280;8065;49.520;11.284;2023-03-26T11:56:26;96264.50;;;10.96;87.76
15932;BME280;8065;49.520;11.284;2023-03-26T11:58:58;96267.50;;;10.95;86.67
15932;BME280;8065;49.520;11.284;2023-03-26T12:01:28;96265.31;;;10.81;87.15
15932;BME280;8065;49.520;11.284;2023-03-26T12:04:10;96259.50;;;10.75;86.19
15932;BME280;8065;49.520;11.284;2023-03-26T12:06:50;96260.63;;;10.94;84.98
15932;BME280;8065;49.520;11.284;2023-03-26T12:09:17;96260.78;;;11.01;85.41
15932;BME280;8065;49.520;11.284;2023-03-26T12:11:44;96263.03;;;10.99;84.41
15932;BME280;8065;49.520;11.284;2023-03-26T12:14:16;96261.75;;;11.12;84.62
15932;BME280;8065;49.520;11.284;2023-03-26T12:16:58;96242.16;;;10.81;86.93
15932;BME280;8065;49.520;11.284;2023-03-26T12:19:25;96236.31;;;10.92;86.14
15932;BME280;8065;49.520;11.284;2023-03-26T12:21:54;96257.84;;;11.06;84.41
15932;BME280;8065;49.520;11.284;2023-03-26T12:24:26;96259.38;;;11.26;84.51
15932;BME280;8065;49.520;11.284;2023-03-26T12:26:57;96238.03;;;11.45;84.18
15932;BME280;8065;49.520;11.284;2023-03-26T12:29:27;96232.84;;;11.53;84.54
15932;BME280;8065;49.520;11.284;2023-03-26T12:31:55;96224.97;;;11.37;84.31
15932;BME280;8065;49.520;11.284;2023-03-26T12:34:28;96224.97;;;11.37;84.75
15932;BME280;8065;49.520;11.284;2023-03-26T12:37:00;96213.22;;;11.61;84.05
15932;BME280;8065;49.520;11.284;2023-03-26T12:39:30;96210.84;;;11.56;84.64
15932;BME280;8065;49.520;11.284;2023-03-26T12:41:58;96211.31;;;11.38;84.79
15932;BME280;8065;49.520;11.284;2023-03-26T12:44:29;96209.50;;;11.88;83.87
15932;BME280;8065;49.520;11.284;2023-03-26T12:47:18;96209.13;;;12.16;82.54
15932;BME280;8065;49.520;11.284;2023-03-26T12:49:46;96206.59;;;12.53;82.19
15932;BME280;8065;49.520;11.284;2023-03-26T12:52:29;96195.50;;;12.47;83.37
15932;BME280;8065;49.520;11.284;2023-03-26T12:55:11;96182.81;;;12.07;83.87
15932;BME280;8065;49.520;11.284;2023-03-26T12:57:45;96183.34;;;12.50;82.64
15932;BME280;8065;49.520;11.284;2023-03-26T13:00:26;96195.16;;;12.83;81.38
15932;BME280;8065;49.520;11.284;2023-03-26T13:03:06;96178.63;;;13.40;80.34
15932;BME280;8065;49.520;11.284;2023-03-26T13:05:53;96170.59;;;13.81;80.32
15932;BME280;8065;49.520;11.284;2023-03-26T13:08:36;96164.94;;;13.97;80.34
15932;BME280;8065;49.520;11.284;2023-03-26T13:11:09;96155.63;;;14.35;80.27
15932;BME280;8065;49.520;11.284;2023-03-26T13:13:59;96150.16;;;14.10;76.72
15932;BME280;8065;49.520;11.284;2023-03-26T13:16:34;96154.56;;;14.43;76.63
15932;BME280;8065;49.520;11.284;2023-03-26T13:19:06;96158.50;;;14.70;76.85
15932;BME280;8065;49.520;11.284;2023-03-26T13:21:42;96147.41;;;14.68;75.04
15932;BME280;8065;49.520;11.284;2023-03-26T13:24:23;96140.22;;;15.08;75.69
15932;BME280;8065;49.520;11.284;2023-03-26T13:27:04;96138.34;;;15.26;73.54
15932;BME280;8065;49.520;11.284;2023-03-26T13:29:40;96132.59;;;15.21;71.12
15932;BME280;8065;49.520;11.284;2023-03-26T13:32:19;96136.44;;;15.41;70.81
15932;BME280;8065;49.520;11.284;2023-03-26T13:34:59;96130.31;;;15.30;69.75
15932;BME280;8065;49.520;11.284;2023-03-26T13:37:36;96138.38;;;15.40;69.29
15932;BME280;8065;49.520;11.284;2023-03-26T13:40:15;96133.38;;;15.21;70.33
15932;BME280;8065;49.520;11.284;2023-03-26T13:42:53;96122.69;;;15.28;71.10
15932;BME280;8065;49.520;11.284;2023-03-26T13:45:37;96125.69;;;15.02;69.20
15932;BME280;8065;49.520;11.284;2023-03-26T13:48:11;96118.84;;;15.22;67.35